Time;durP1;ratioP1;P1;durP2;ratioP2;P2;SDS_P1;SDS_P2;PMS_P1;PMS_P2;Temp;Humidity;BMP_temperature;BMP_pressure;BME280_temperature;BME280_humidity;BME280_pressure;Samples;Min_cycle;Max_cycle;Signal;HPM_P1;HPM_P2
2024/01/04 00:00:39;;;;;;;;;;;;;;;6.20;100.00;94995.19;5028276;28;19967;-74
2024/01/04 00:03:05;;;;;;;;;;;;;;;6.18;100.00;95017.25;5029275;28;19945;-70
2024/01/04 00:05:30;;;;;;;;;;;;;;;6.14;100.00;95011.72;5044989;28;19981;-74
2024/01/04 00:07:56;;;;;;;;;;;;;;;6.11;100.00;95025.19;5045146;28;20037;-73
2024/01/04 00:10:22;;;;;;;;;;;;;;;6.09;100.00;95027.22;5044812;28;19935;-74
2024/01/04 00:12:49;;;;;;;;;;;;;;;6.07;100.00;95039.66;5044238;28;19941;-74
2024/01/04 00:15:14;;;;;;;;;;;;;;;6.06;100.00;95030.25;5044925;28;19935;-73
2024/01/04 00:17:40;;;;;;;;;;;;;;;6.06;100.00;95019.84;5044699;28;20221;-72
2024/01/04 00:20:06;;;;;;;;;;;;;;;6.06;100.00;95030.25;5044622;28;19958;-73
2024/01/04 00:22:32;;;;;;;;;;;;;;;6.06;100.00;95038.06;5044595;28;19950;-72
2024/01/04 00:24:58;;;;;;;;;;;;;;;6.04;100.00;95034.88;5027817;28;19939;-72
2024/01/04 00:27:24;;;;;;;;;;;;;;;6.05;100.00;95034.66;5044486;28;19943;-72
2024/01/04 00:29:50;;;;;;;;;;;;;;;6.06;100.00;95036.25;5027683;28;20132;-73
2024/01/04 00:32:15;;;;;;;;;;;;;;;6.05;100.00;95034.66;5044351;28;19935;-72
2024/01/04 00:34:41;;;;;;;;;;;;;;;6.04;100.00;95027.84;5027513;28;19957;-72
2024/01/04 00:37:07;;;;;;;;;;;;;;;6.06;100.00;95033.63;5052892;28;19943;-71
2024/01/04 00:39:33;;;;;;;;;;;;;;;6.07;100.00;95026.66;5066224;28;19956;-72
2024/01/04 00:41:59;;;;;;;;;;;;;;;6.07;100.00;95029.25;5031558;28;20230;-69
2024/01/04 00:44:24;;;;;;;;;;;;;;;6.06;100.00;95041.44;5065320;28;19952;-69
2024/01/04 00:46:51;;;;;;;;;;;;;;;6.06;100.00;95044.03;5065794;28;19939;-69
2024/01/04 00:49:17;;;;;;;;;;;;;;;6.08;100.00;95059.44;5066249;28;20122;-69
2024/01/04 00:51:43;;;;;;;;;;;;;;;6.09;100.00;95071.47;5066358;28;19946;-69
2024/01/04 00:54:10;;;;;;;;;;;;;;;6.13;100.00;95061.38;5065662;28;19940;-69
2024/01/04 00:56:36;;;;;;;;;;;;;;;6.12;100.00;95068.41;5065606;28;20234;-73
2024/01/04 00:59:02;;;;;;;;;;;;;;;6.13;100.00;95058.78;5065606;28;19981;-69
2024/01/04 01:01:34;;;;;;;;;;;;;;;6.13;100.00;95058.78;5065302;28;19978;-69
2024/01/04 01:04:01;;;;;;;;;;;;;;;6.10;100.00;95063.41;5065956;28;19952;-69
2024/01/04 01:06:26;;;;;;;;;;;;;;;6.12;100.00;95085.81;5065730;28;19937;-70
2024/01/04 01:08:52;;;;;;;;;;;;;;;6.09;100.00;95077.44;5065628;28;20026;-69
2024/01/04 01:11:18;;;;;;;;;;;;;;;6.09;100.00;95071.47;5047683;28;20240;-69
2024/01/04 01:13:44;;;;;;;;;;;;;;;6.08;100.00;95069.84;5048254;28;20202;-71
2024/01/04 01:16:10;;;;;;;;;;;;;;;6.08;100.00;95072.47;5065768;28;19933;-70
2024/01/04 01:18:37;;;;;;;;;;;;;;;6.09;100.00;95084.47;5065907;28;19957;-72
2024/01/04 01:21:04;;;;;;;;;;;;;;;6.08;100.00;95081.06;5065658;28;20209;-72
2024/01/04 01:23:29;;;;;;;;;;;;;;;6.08;100.00;95088.06;5065160;28;20130;-72
2024/01/04 01:25:55;;;;;;;;;;;;;;;6.08;100.00;95091.47;5065692;28;19934;-72
2024/01/04 01:28:21;;;;;;;;;;;;;;;6.07;100.00;95089.09;5065019;28;19946;-72
2024/01/04 01:30:47;;;;;;;;;;;;;;;6.04;100.00;95086.94;5064951;28;19936;-72
2024/01/04 01:33:13;;;;;;;;;;;;;;;6.02;100.00;95087.13;5065249;28;19999;-74
2024/01/04 01:35:39;;;;;;;;;;;;;;;5.99;100.00;95100.63;5065326;28;19950;-69
2024/01/04 01:38:05;;;;;;;;;;;;;;;5.99;100.00;95110.22;5065259;28;19985;-69
2024/01/04 01:40:30;;;;;;;;;;;;;;;5.96;100.00;95123.66;5064713;28;20023;-70
2024/01/04 01:42:59;;;;;;;;;;;;;;;5.95;100.00;95122.09;5064710;28;19947;-70
2024/01/04 01:45:24;;;;;;;;;;;;;;;5.94;100.00;95126.44;5065460;28;19935;-70
2024/01/04 01:47:50;;;;;;;;;;;;;;;5.93;100.00;95139.72;5064852;28;19966;-70
2024/01/04 01:50:19;;;;;;;;;;;;;;;5.91;100.00;95158.13;5065348;28;19935;-70
2024/01/04 01:52:45;;;;;;;;;;;;;;;5.89;100.00;95160.94;5065043;28;19952;-72
2024/01/04 01:55:13;;;;;;;;;;;;;;;5.89;100.00;95165.34;5046467;28;19945;-71
2024/01/04 01:57:39;;;;;;;;;;;;;;;5.87;100.00;95172.59;5047405;28;19941;-72
2024/01/04 02:00:06;;;;;;;;;;;;;;;5.85;100.00;95162.41;5046925;28;19997;-71
2024/01/04 02:02:33;;;;;;;;;;;;;;;5.81;100.00;95165.66;5064795;28;19946;-71
2024/01/04 02:05:00;;;;;;;;;;;;;;;5.78;100.00;95151.28;5063849;28;19947;-71
2024/01/04 02:07:26;;;;;;;;;;;;;;;5.76;100.00;95161.13;5064747;28;19948;-71
2024/01/04 02:09:52;;;;;;;;;;;;;;;5.73;100.00;95158.94;5064883;28;19959;-72
2024/01/04 02:12:17;;;;;;;;;;;;;;;5.72;100.00;95162.56;5064561;28;19957;-85
2024/01/04 02:14:44;;;;;;;;;;;;;;;5.69;100.00;95168.19;5064636;28;19943;-83
2024/01/04 02:17:10;;;;;;;;;;;;;;;5.66;100.00;95181.66;5046813;28;20059;-85
2024/01/04 02:19:36;;;;;;;;;;;;;;;5.64;100.00;95194.06;5046639;28;19953;-86
2024/01/04 02:22:02;;;;;;;;;;;;;;;5.62;100.00;95190.88;5046947;28;19951;-85
2024/01/04 02:24:28;;;;;;;;;;;;;;;5.62;100.00;95196.88;5046717;28;19941;-82
2024/01/04 02:26:54;;;;;;;;;;;;;;;5.62;100.00;95201.28;5064337;28;20068;-85
2024/01/04 02:29:20;;;;;;;;;;;;;;;5.61;100.00;95215.31;5046677;28;20100;-70
2024/01/04 02:31:47;;;;;;;;;;;;;;;5.58;100.00;95216.53;5046696;28;20007;-70
2024/01/04 02:34:13;;;;;;;;;;;;;;;5.52;100.00;95220.00;5046063;28;19944;-70
2024/01/04 02:36:39;;;;;;;;;;;;;;;5.46;100.00;95218.28;5064423;28;20148;-70
2024/01/04 02:39:05;;;;;;;;;;;;;;;5.40;100.00;95225.13;5063936;28;19960;-70
2024/01/04 02:41:31;;;;;;;;;;;;;;;5.35;100.00;95224.16;5064483;28;20172;-70
2024/01/04 02:43:57;;;;;;;;;;;;;;;5.26;100.00;95224.44;5064150;28;19983;-70
2024/01/04 02:46:22;;;;;;;;;;;;;;;5.20;100.00;95227.09;5063720;28;19995;-71
2024/01/04 02:48:48;;;;;;;;;;;;;;;5.13;100.00;95223.78;5046084;28;19988;-74
2024/01/04 02:51:14;;;;;;;;;;;;;;;5.11;100.00;95223.19;5064039;28;19936;-74
2024/01/04 02:53:40;;;;;;;;;;;;;;;5.07;100.00;95228.81;5064264;28;19978;-76
2024/01/04 02:56:06;;;;;;;;;;;;;;;5.06;100.00;95235.03;5064171;28;19950;-74
2024/01/04 02:58:32;;;;;;;;;;;;;;;5.06;100.00;95244.59;5063609;28;19941;-74
2024/01/04 03:00:57;;;;;;;;;;;;;;;5.04;100.00;95250.03;5063276;28;19984;-74
2024/01/04 03:03:23;;;;;;;;;;;;;;;5.03;100.00;95251.03;5064144;28;19938;-74
2024/01/04 03:05:49;;;;;;;;;;;;;;;4.99;100.00;95249.06;5063907;28;19954;-73
2024/01/04 03:08:15;;;;;;;;;;;;;;;4.99;100.00;95244.66;5045804;28;19998;-72
2024/01/04 03:10:41;;;;;;;;;;;;;;;5.01;100.00;95241.84;5029615;28;19957;-72
2024/01/04 03:13:07;;;;;;;;;;;;;;;5.00;100.00;95248.88;5029619;28;19940;-72
2024/01/04 03:15:32;;;;;;;;;;;;;;;4.98;100.00;95261.28;5045762;28;19993;-71
2024/01/04 03:17:58;;;;;;;;;;;;;;;5.00;100.00;95271.47;5045383;28;19937;-71
2024/01/04 03:20:24;;;;;;;;;;;;;;;5.02;100.00;95270.22;5045956;28;19996;-72
2024/01/04 03:22:50;;;;;;;;;;;;;;;5.03;100.00;95261.41;5063761;28;19950;-69
2024/01/04 03:25:16;;;;;;;;;;;;;;;5.03;100.00;95250.25;5029578;28;19945;-70
2024/01/04 03:27:43;;;;;;;;;;;;;;;5.03;100.00;95252.84;5063703;28;19939;-73
2024/01/04 03:30:10;;;;;;;;;;;;;;;5.03;100.00;95245.84;5063576;28;20152;-72
2024/01/04 03:32:36;;;;;;;;;;;;;;;5.05;100.00;95246.41;5063916;28;20232;-72
2024/01/04 03:35:04;;;;;;;;;;;;;;;5.07;100.00;95241.81;5063824;28;19959;-72
2024/01/04 03:37:30;;;;;;;;;;;;;;;5.07;100.00;95239.19;5063658;28;19942;-72
2024/01/04 03:39:56;;;;;;;;;;;;;;;5.11;100.00;95242.19;5063302;28;19962;-72
2024/01/04 03:42:22;;;;;;;;;;;;;;;5.15;100.00;95245.16;5063890;28;20107;-69
2024/01/04 03:44:47;;;;;;;;;;;;;;;5.20;100.00;95234.91;5045929;28;19958;-84
2024/01/04 03:47:13;;;;;;;;;;;;;;;5.23;100.00;95224.88;5063836;28;19944;-85
2024/01/04 03:49:39;;;;;;;;;;;;;;;5.29;100.00;95231.81;5063575;28;19940;-87
2024/01/04 03:52:05;;;;;;;;;;;;;;;5.34;100.00;95246.78;5063333;28;19937;-86
2024/01/04 03:54:31;;;;;;;;;;;;;;;5.37;100.00;95255.94;5063807;28;19984;-86
2024/01/04 03:56:57;;;;;;;;;;;;;;;5.42;100.00;95254.31;5063087;28;20009;-86
2024/01/04 03:59:23;;;;;;;;;;;;;;;5.43;100.00;95252.50;5063558;28;19958;-70
2024/01/04 04:01:49;;;;;;;;;;;;;;;5.45;100.00;95247.88;5045337;28;20017;-69
2024/01/04 04:04:15;;;;;;;;;;;;;;;5.46;100.00;95263.25;5063639;28;19981;-70
2024/01/04 04:06:41;;;;;;;;;;;;;;;5.49;100.00;95254.22;5063702;28;19975;-71
2024/01/04 04:09:07;;;;;;;;;;;;;;;5.52;100.00;95260.81;5063143;28;20266;-70
2024/01/04 04:11:33;;;;;;;;;;;;;;;5.52;100.00;95268.59;5065088;28;19933;-70
2024/01/04 04:14:00;;;;;;;;;;;;;;;5.52;100.00;95272.00;5067175;28;19941;-70
2024/01/04 04:16:25;;;;;;;;;;;;;;;5.51;100.00;95269.63;5067117;28;19927;-70
2024/01/04 04:18:51;;;;;;;;;;;;;;;5.51;100.00;95272.22;5066493;28;20142;-72
2024/01/04 04:21:21;;;;;;;;;;;;;;;5.49;100.00;95269.84;5032876;28;20147;-70
2024/01/04 04:23:49;;;;;;;;;;;;;;;5.49;100.00;95285.44;5049223;28;20104;-70
2024/01/04 04:26:19;;;;;;;;;;;;;;;5.49;100.00;95295.84;5033255;28;19961;-70
2024/01/04 04:28:45;;;;;;;;;;;;;;;5.48;100.00;95287.25;5049019;28;20119;-71
2024/01/04 04:31:14;;;;;;;;;;;;;;;5.46;100.00;95296.28;5066667;28;19940;-70
2024/01/04 04:33:40;;;;;;;;;;;;;;;5.46;100.00;95283.28;5066618;28;20094;-71
2024/01/04 04:36:07;;;;;;;;;;;;;;;5.45;100.00;95285.06;5066669;28;20336;-73
2024/01/04 04:38:34;;;;;;;;;;;;;;;5.43;100.00;95289.69;5066583;28;20123;-69
2024/01/04 04:41:01;;;;;;;;;;;;;;;5.42;100.00;95282.91;5048706;28;19957;-73
2024/01/04 04:43:27;;;;;;;;;;;;;;;5.42;100.00;95276.91;5066488;28;19937;-73
2024/01/04 04:45:52;;;;;;;;;;;;;;;5.41;100.00;95273.50;5066390;28;19979;-74
2024/01/04 04:48:18;;;;;;;;;;;;;;;5.40;100.00;95273.72;5066137;28;19947;-73
2024/01/04 04:50:44;;;;;;;;;;;;;;;5.37;100.00;95284.53;5047979;28;19946;-74
2024/01/04 04:53:10;;;;;;;;;;;;;;;5.36;100.00;95296.75;5065952;28;19949;-73
2024/01/04 04:55:36;;;;;;;;;;;;;;;5.35;100.00;95296.97;5065888;28;19974;-74
2024/01/04 04:58:01;;;;;;;;;;;;;;;5.35;100.00;95302.94;5047917;28;20046;-69
2024/01/04 05:00:27;;;;;;;;;;;;;;;5.37;100.00;95307.94;5047741;28;19966;-69
2024/01/04 05:02:53;;;;;;;;;;;;;;;5.39;100.00;95317.09;5065957;28;19946;-69
2024/01/04 05:05:19;;;;;;;;;;;;;;;5.40;100.00;95329.13;5048621;28;19993;-69
2024/01/04 05:07:45;;;;;;;;;;;;;;;5.43;100.00;95340.88;5065531;28;19954;-70
2024/01/04 05:10:11;;;;;;;;;;;;;;;5.40;100.00;95331.72;5065493;28;19938;-70
2024/01/04 05:12:36;;;;;;;;;;;;;;;5.41;100.00;95340.31;5065469;28;19944;-69
2024/01/04 05:15:02;;;;;;;;;;;;;;;5.41;100.00;95348.09;5065371;28;19946;-69
2024/01/04 05:17:28;;;;;;;;;;;;;;;5.40;100.00;95349.13;5047604;28;19941;-82
2024/01/04 05:19:54;;;;;;;;;;;;;;;5.38;100.00;95349.31;5065199;28;20008;-83
2024/01/04 05:22:20;;;;;;;;;;;;;;;5.36;100.00;95360.94;5065638;28;20064;-86
2024/01/04 05:24:46;;;;;;;;;;;;;;;5.34;100.00;95358.56;5065188;28;19937;-84
2024/01/04 05:27:12;;;;;;;;;;;;;;;5.32;100.00;95375.38;5065118;28;20001;-84
2024/01/04 05:29:38;;;;;;;;;;;;;;;5.30;100.00;95370.38;5065132;28;19956;-83
2024/01/04 05:32:04;;;;;;;;;;;;;;;5.29;100.00;95373.97;5047918;28;20221;-71
2024/01/04 05:34:32;;;;;;;;;;;;;;;5.28;100.00;95373.19;5065124;28;19975;-73
2024/01/04 05:36:58;;;;;;;;;;;;;;;5.27;100.00;95375.97;5065175;28;19961;-73
2024/01/04 05:39:24;;;;;;;;;;;;;;;5.27;100.00;95375.97;5064818;28;19939;-72
2024/01/04 05:41:50;;;;;;;;;;;;;;;5.27;100.00;95371.59;5064803;28;19943;-73
2024/01/04 05:44:16;;;;;;;;;;;;;;;5.28;100.00;95364.59;5064819;28;19940;-75
2024/01/04 05:46:42;;;;;;;;;;;;;;;5.31;100.00;95377.16;5064769;28;19940;-74
2024/01/04 05:49:08;;;;;;;;;;;;;;;5.32;100.00;95381.38;5064754;28;19942;-74
2024/01/04 05:51:34;;;;;;;;;;;;;;;5.33;100.00;95375.16;5064732;28;19963;-71
2024/01/04 05:54:02;;;;;;;;;;;;;;;5.32;100.00;95373.56;5064646;28;19945;-69
2024/01/04 05:56:28;;;;;;;;;;;;;;;5.33;100.00;95382.16;5046778;28;19942;-70
2024/01/04 05:58:54;;;;;;;;;;;;;;;5.31;100.00;95386.75;5064969;28;19940;-69
2024/01/04 06:01:20;;;;;;;;;;;;;;;5.29;100.00;95392.16;5046745;28;20046;-70
2024/01/04 06:03:46;;;;;;;;;;;;;;;5.29;100.00;95407.75;5064410;28;20058;-70
2024/01/04 06:06:14;;;;;;;;;;;;;;;5.29;100.00;95399.97;5064406;28;19945;-70
2024/01/04 06:08:40;;;;;;;;;;;;;;;5.28;100.00;95403.59;5064270;28;19952;-74
2024/01/04 06:11:06;;;;;;;;;;;;;;;5.27;100.00;95414.97;5064345;28;19939;-74
2024/01/04 06:13:32;;;;;;;;;;;;;;;5.26;100.00;95421.19;5046572;28;19941;-71
2024/01/04 06:15:58;;;;;;;;;;;;;;;5.25;100.00;95417.81;5064164;28;19935;-72
2024/01/04 06:18:24;;;;;;;;;;;;;;;5.25;100.00;95414.41;5029722;28;20008;-72
2024/01/04 06:20:50;;;;;;;;;;;;;;;5.25;100.00;95435.22;5046333;28;19957;-72
2024/01/04 06:23:16;;;;;;;;;;;;;;;5.23;100.00;95442.41;5029772;28;19947;-72
2024/01/04 06:25:41;;;;;;;;;;;;;;;5.22;100.00;95438.22;5029750;28;20243;-72
2024/01/04 06:28:08;;;;;;;;;;;;;;;5.19;100.00;95436.03;5029656;28;19944;-73
2024/01/04 06:30:35;;;;;;;;;;;;;;;5.16;100.00;95436.44;5030411;28;20078;-74
2024/01/04 06:33:01;;;;;;;;;;;;;;;5.14;100.00;95436.63;5063910;28;19940;-74
2024/01/04 06:35:27;;;;;;;;;;;;;;;5.12;100.00;95443.84;5063293;28;19937;-74
2024/01/04 06:37:53;;;;;;;;;;;;;;;5.09;100.00;95447.66;5063790;28;20007;-73
2024/01/04 06:40:19;;;;;;;;;;;;;;;5.07;100.00;95457.47;5064183;28;19954;-74
2024/01/04 06:42:53;;;;;;;;;;;;;;;5.07;100.00;95467.06;5063740;28;20133;-75
2024/01/04 06:45:18;;;;;;;;;;;;;;;5.05;100.00;95476.88;5064263;28;19939;-74
2024/01/04 06:47:44;;;;;;;;;;;;;;;5.04;100.00;95483.88;5063680;28;19948;-74
2024/01/04 06:50:10;;;;;;;;;;;;;;;5.04;100.00;95477.88;5063613;28;19942;-75
2024/01/04 06:52:36;;;;;;;;;;;;;;;5.03;100.00;95492.66;5045833;28;19942;-74
2024/01/04 06:55:04;;;;;;;;;;;;;;;5.02;100.00;95493.69;5062839;28;20820;-74
2024/01/04 06:57:30;;;;;;;;;;;;;;;5.04;100.00;95514.25;5063467;28;20006;-74
2024/01/04 06:59:55;;;;;;;;;;;;;;;5.04;100.00;95506.44;5063387;28;19965;-74
2024/01/04 07:02:21;;;;;;;;;;;;;;;5.05;100.00;95518.44;5063342;28;19968;-74
2024/01/04 07:04:47;;;;;;;;;;;;;;;5.04;100.00;95511.66;5046218;28;20132;-70
2024/01/04 07:07:13;;;;;;;;;;;;;;;5.04;100.00;95517.66;5063827;28;20245;-73
2024/01/04 07:09:39;;;;;;;;;;;;;;;5.05;100.00;95523.66;5063816;28;20015;-74
2024/01/04 07:12:06;;;;;;;;;;;;;;;5.04;100.00;95525.47;5046106;28;19960;-74
2024/01/04 07:14:32;;;;;;;;;;;;;;;5.05;100.00;95524.44;5064094;28;19942;-75
2024/01/04 07:16:57;;;;;;;;;;;;;;;5.06;100.00;95536.44;5063595;28;19949;-74
2024/01/04 07:19:23;;;;;;;;;;;;;;;5.08;100.00;95544.00;5063319;28;19948;-75
2024/01/04 07:21:49;;;;;;;;;;;;;;;5.11;100.00;95550.63;5063240;28;19967;-72
2024/01/04 07:24:16;;;;;;;;;;;;;;;5.13;100.00;95544.22;5029568;28;20130;-76
2024/01/04 07:26:41;;;;;;;;;;;;;;;5.12;100.00;95550.41;5063925;28;19956;-71
2024/01/04 07:29:07;;;;;;;;;;;;;;;5.12;100.00;95563.38;5045963;28;20224;-71
2024/01/04 07:31:33;;;;;;;;;;;;;;;5.14;100.00;95569.19;5046069;28;20211;-71
2024/01/04 07:34:00;;;;;;;;;;;;;;;5.16;100.00;95568.97;5045828;28;19941;-70
2024/01/04 07:36:26;;;;;;;;;;;;;;;5.17;100.00;95562.78;5063844;28;19945;-71
2024/01/04 07:38:52;;;;;;;;;;;;;;;5.18;100.00;95564.38;5063532;28;19948;-70
2024/01/04 07:41:17;;;;;;;;;;;;;;;5.19;100.00;95566.78;5045194;28;19964;-72
2024/01/04 07:43:43;;;;;;;;;;;;;;;5.21;100.00;95571.78;5029425;28;19944;-75
2024/01/04 07:46:09;;;;;;;;;;;;;;;5.23;100.00;95567.97;5048220;28;20172;-75
2024/01/04 07:48:35;;;;;;;;;;;;;;;5.25;100.00;95573.75;5067459;28;19943;-75
2024/01/04 07:51:01;;;;;;;;;;;;;;;5.25;100.00;95581.56;5067390;28;20000;-73
2024/01/04 07:53:26;;;;;;;;;;;;;;;5.27;100.00;95573.53;5066436;28;19945;-75
2024/01/04 07:55:52;;;;;;;;;;;;;;;5.31;100.00;95571.31;5048873;28;19948;-75
2024/01/04 07:58:18;;;;;;;;;;;;;;;5.37;100.00;95578.31;5067442;28;19942;-74
2024/01/04 08:00:44;;;;;;;;;;;;;;;5.43;100.00;95580.88;5045384;28;19979;-79
2024/01/04 08:03:10;;;;;;;;;;;;;;;5.48;100.00;95588.03;5029773;28;19984;-70
2024/01/04 08:05:36;;;;;;;;;;;;;;;5.52;100.00;95586.63;5046289;28;19940;-69
2024/01/04 08:08:01;;;;;;;;;;;;;;;5.51;100.00;95589.47;5046892;28;19991;-69
2024/01/04 08:10:27;;;;;;;;;;;;;;;5.49;100.00;95584.47;5046757;28;19989;-71
2024/01/04 08:12:53;;;;;;;;;;;;;;;5.49;100.00;95589.66;5046588;28;19937;-70
2024/01/04 08:15:19;;;;;;;;;;;;;;;5.49;100.00;95595.66;5045921;28;20106;-69
2024/01/04 08:17:45;;;;;;;;;;;;;;;5.49;100.00;95581.84;5046932;28;20000;-73
2024/01/04 08:20:13;;;;;;;;;;;;;;;5.51;100.00;95569.44;5045726;28;19961;-72
2024/01/04 08:22:39;;;;;;;;;;;;;;;5.53;100.00;95582.25;5045965;28;19941;-75
2024/01/04 08:25:05;;;;;;;;;;;;;;;5.55;100.00;95588.84;5046942;28;19952;-74
2024/01/04 08:27:31;;;;;;;;;;;;;;;5.57;100.00;95584.22;5046389;28;20224;-76
2024/01/04 08:29:57;;;;;;;;;;;;;;;5.58;100.00;95574.63;5046621;28;19944;-75
2024/01/04 08:32:23;;;;;;;;;;;;;;;5.57;100.00;95579.03;5046692;28;19943;-77
2024/01/04 08:34:49;;;;;;;;;;;;;;;5.56;100.00;95595.63;5046776;28;20171;-74
2024/01/04 08:37:18;;;;;;;;;;;;;;;5.56;100.00;95592.22;5045528;28;19948;-73
2024/01/04 08:39:44;;;;;;;;;;;;;;;5.58;100.00;95601.41;5046452;28;19953;-71
2024/01/04 08:42:10;;;;;;;;;;;;;;;5.59;100.00;95603.03;5045115;28;19940;-70
2024/01/04 08:44:35;;;;;;;;;;;;;;;5.61;100.00;95614.03;5046448;28;19947;-71
2024/01/04 08:47:01;;;;;;;;;;;;;;;5.61;100.00;95616.63;5046024;28;19939;-70
2024/01/04 08:49:28;;;;;;;;;;;;;;;5.59;100.00;95621.22;5046304;28;19963;-71
2024/01/04 08:51:53;;;;;;;;;;;;;;;5.58;100.00;95624.03;5046272;28;19946;-71
2024/01/04 08:54:19;;;;;;;;;;;;;;;5.56;100.00;95641.63;5045992;28;19959;-72
2024/01/04 08:56:45;;;;;;;;;;;;;;;5.46;100.00;95631.69;5027994;28;19972;-75
2024/01/04 08:59:11;;;;;;;;;;;;;;;5.40;100.00;95633.31;5045261;28;20240;-72
2024/01/04 09:01:37;;;;;;;;;;;;;;;5.35;100.00;95633.09;5027646;28;20062;-71
2024/01/04 09:04:03;;;;;;;;;;;;;;;5.31;100.00;95638.91;5046045;28;19945;-71
2024/01/04 09:06:31;;;;;;;;;;;;;;;5.31;100.00;95641.53;5044961;28;19953;-72
2024/01/04 09:08:59;;;;;;;;;;;;;;;5.37;100.00;95641.50;5044276;28;20274;-72
2024/01/04 09:11:28;;;;;;;;;;;;;;;5.62;100.00;95643.41;5045499;28;19948;-71
2024/01/04 09:13:53;;;;;;;;;;;;;;;5.90;100.00;95648.31;5044902;28;19946;-86
2024/01/04 09:16:21;;;;;;;;;;;;;;;6.17;100.00;95635.97;5045449;28;19945;-71
2024/01/04 09:18:47;;;;;;;;;;;;;;;6.42;100.00;95640.41;5044505;28;20033;-72
2024/01/04 09:21:13;;;;;;;;;;;;;;;6.65;100.00;95638.03;5028209;28;19983;-72
2024/01/04 09:23:39;;;;;;;;;;;;;;;6.84;100.00;95638.09;5027572;28;20146;-72
2024/01/04 09:26:09;;;;;;;;;;;;;;;7.04;100.00;95650.94;5028245;28;19947;-71
2024/01/04 09:28:35;;;;;;;;;;;;;;;7.27;100.00;95639.91;5045649;28;19947;-71
2024/01/04 09:31:01;;;;;;;;;;;;;;;7.41;100.00;95637.94;5045584;28;19950;-70
2024/01/04 09:33:26;;;;;;;;;;;;;;;7.47;100.00;95637.84;5027645;28;19940;-74
2024/01/04 09:35:52;;;;;;;;;;;;;;;7.43;100.00;95654.16;5043793;28;19951;-84
2024/01/04 09:38:19;;;;;;;;;;;;;;;7.33;100.00;95654.69;5045049;28;20222;-88
2024/01/04 09:40:46;;;;;;;;;;;;;;;7.10;100.00;95643.06;5045673;28;20186;-88
2024/01/04 09:43:15;;;;;;;;;;;;;;;6.82;100.00;95645.31;5045244;28;19944;-88
2024/01/04 09:45:42;;;;;;;;;;;;;;;6.67;100.00;95680.31;5045359;28;20165;-86
2024/01/04 09:48:10;;;;;;;;;;;;;;;6.55;100.00;95683.78;5045588;28;20144;-88
2024/01/04 09:50:37;;;;;;;;;;;;;;;6.59;100.00;95685.75;5044849;28;19935;-70
2024/01/04 09:53:03;;;;;;;;;;;;;;;6.90;100.00;95697.16;5044959;28;19943;-69
2024/01/04 09:55:30;;;;;;;;;;;;;;;7.15;100.00;95685.94;5045123;28;20240;-70
2024/01/04 09:57:56;;;;;;;;;;;;;;;7.18;100.00;95678.50;5044216;28;20133;-70
2024/01/04 10:00:22;;;;;;;;;;;;;;;7.05;100.00;95673.38;5047358;28;19956;-69
2024/01/04 10:02:49;;;;;;;;;;;;;;;7.02;100.00;95692.88;5065055;28;19947;-70
2024/01/04 10:05:16;;;;;;;;;;;;;;;7.08;100.00;95680.78;5047309;28;19938;-69
2024/01/04 10:07:51;;;;;;;;;;;;;;;7.18;100.00;95668.06;5065048;28;19945;-72
2024/01/04 10:10:19;;;;;;;;;;;;;;;7.19;100.00;95682.69;5030029;28;19942;-76
2024/01/04 10:12:46;;;;;;;;;;;;;;;7.19;100.00;95681.91;5064809;28;19941;-70
2024/01/04 10:15:13;;;;;;;;;;;;;;;7.18;100.00;95685.50;5047539;28;19948;-69
2024/01/04 10:17:39;;;;;;;;;;;;;;;7.22;100.00;95673.63;5065174;28;20238;-69
2024/01/04 10:20:07;;;;;;;;;;;;;;;7.47;100.00;95670.97;5064850;28;20249;-69
2024/01/04 10:22:33;;;;;;;;;;;;;;;7.78;100.00;95661.41;5046937;28;19948;-70
2024/01/04 10:25:08;;;;;;;;;;;;;;;8.02;100.00;95657.91;5064502;28;19945;-69
2024/01/04 10:27:34;;;;;;;;;;;;;;;8.11;100.00;95633.06;5064593;28;19955;-70
2024/01/04 10:30:04;;;;;;;;;;;;;;;8.14;100.00;95629.19;5064564;28;19949;-86
2024/01/04 10:32:30;;;;;;;;;;;;;;;8.07;100.00;95626.69;5047363;28;20131;-85
2024/01/04 10:35:04;;;;;;;;;;;;;;;8.00;100.00;95631.22;5064329;28;19941;-86
2024/01/04 10:37:30;;;;;;;;;;;;;;;8.02;100.00;95657.91;5064048;28;19946;-86
2024/01/04 10:39:57;;;;;;;;;;;;;;;7.91;100.00;95648.19;5063826;28;20015;-85
2024/01/04 10:42:22;;;;;;;;;;;;;;;7.67;100.00;95636.84;5063821;28;19961;-85
2024/01/04 10:44:52;;;;;;;;;;;;;;;7.55;100.00;95662.06;5046504;28;19945;-69
2024/01/04 10:47:18;;;;;;;;;;;;;;;7.44;100.00;95659.16;5063853;28;19939;-69
2024/01/04 10:49:45;;;;;;;;;;;;;;;7.53;100.00;95678.72;5063782;28;19955;-69
2024/01/04 10:52:13;;;;;;;;;;;;;;;7.60;100.00;95652.59;5046066;28;20229;-70
2024/01/04 10:54:41;;;;;;;;;;;;;;;7.53;100.00;95654.44;5046028;28;19940;-69
2024/01/04 10:57:08;;;;;;;;;;;;;;;7.46;100.00;95669.41;5045877;28;19948;-69
2024/01/04 10:59:34;;;;;;;;;;;;;;;7.40;100.00;95673.66;5063565;28;20036;-70
2024/01/04 11:02:01;;;;;;;;;;;;;;;7.51;100.00;95685.97;5063345;28;20126;-69
2024/01/04 11:04:27;;;;;;;;;;;;;;;7.75;100.00;95669.66;5063555;28;19946;-73
2024/01/04 11:06:53;;;;;;;;;;;;;;;8.01;100.00;95677.19;5063532;28;20240;-80
2024/01/04 11:09:20;;;;;;;;;;;;;;;8.32;100.00;95678.78;5045754;28;19960;-78
2024/01/04 11:11:48;;;;;;;;;;;;;;;8.26;100.00;95650.94;5064130;28;19948;-77
2024/01/04 11:14:14;;;;;;;;;;;;;;;7.97;100.00;95686.47;5063428;28;19938;-72
2024/01/04 11:16:55;;;;;;;;;;;;;;;8.00;100.00;95706.09;5063467;28;19937;-74
2024/01/04 11:19:35;;;;;;;;;;;;;;;8.17;100.00;95714.94;5063415;28;19939;-73
2024/01/04 11:22:10;;;;;;;;;;;;;;;8.21;100.00;95697.81;5068121;28;19960;-67
2024/01/04 11:24:54;;;;;;;;;;;;;;;8.11;100.00;95663.59;5067858;28;20117;-73
2024/01/04 11:27:21;;;;;;;;;;;;;;;7.73;100.00;95672.50;5049624;28;19945;-73
2024/01/04 11:29:49;;;;;;;;;;;;;;;7.37;100.00;95676.72;5049492;28;20151;-73
2024/01/04 11:32:15;;;;;;;;;;;;;;;7.34;100.00;95669.31;5049471;28;19951;-73
2024/01/04 11:34:43;;;;;;;;;;;;;;;7.53;100.00;95675.31;5049440;28;19988;-73
2024/01/04 11:37:19;;;;;;;;;;;;;;;7.70;100.00;95660.66;5032975;28;20140;-73
2024/01/04 11:39:58;;;;;;;;;;;;;;;7.86;100.00;95672.34;5049520;28;19940;-74
2024/01/04 11:42:37;;;;;;;;;;;;;;;7.85;100.00;95643.84;5067176;28;19965;-81
2024/01/04 11:45:07;;;;;;;;;;;;;;;7.74;100.00;95645.38;5067105;28;20227;-69
2024/01/04 11:47:37;;;;;;;;;;;;;;;7.66;100.00;95651.69;5067036;28;19943;-69
2024/01/04 11:50:16;;;;;;;;;;;;;;;7.82;100.00;95660.75;5067017;28;19944;-69
2024/01/04 11:52:46;;;;;;;;;;;;;;;7.75;100.00;95644.38;5066918;28;19939;-69
2024/01/04 11:55:22;;;;;;;;;;;;;;;7.51;100.00;95638.22;5066985;28;20139;-69
2024/01/04 11:57:48;;;;;;;;;;;;;;;7.26;100.00;95662.53;5066959;28;19949;-69
2024/01/04 12:00:15;;;;;;;;;;;;;;;7.11;100.00;95668.09;5067148;28;19945;-69
2024/01/04 12:02:40;;;;;;;;;;;;;;;7.00;100.00;95668.81;5067307;28;19965;-78
2024/01/04 12:05:06;;;;;;;;;;;;;;;6.97;100.00;95689.28;5066812;28;19945;-78
2024/01/04 12:07:33;;;;;;;;;;;;;;;6.96;100.00;95685.09;5066707;28;19937;-79
2024/01/04 12:09:59;;;;;;;;;;;;;;;7.03;100.00;95691.03;5048725;28;19947;-79
2024/01/04 12:12:25;;;;;;;;;;;;;;;7.15;100.00;95689.34;5067418;28;19946;-78
2024/01/04 12:14:51;;;;;;;;;;;;;;;7.23;100.00;95698.72;5066601;28;19939;-78
2024/01/04 12:17:17;;;;;;;;;;;;;;;7.28;100.00;95697.03;5066519;28;19943;-72
2024/01/04 12:19:42;;;;;;;;;;;;;;;7.25;100.00;95691.47;5066499;28;19938;-74
2024/01/04 12:22:08;;;;;;;;;;;;;;;7.24;100.00;95705.50;5048615;28;19954;-75
2024/01/04 12:24:34;;;;;;;;;;;;;;;7.11;100.00;95693.38;5066467;28;20318;-74
2024/01/04 12:27:00;;;;;;;;;;;;;;;7.02;100.00;95700.69;5048550;28;19938;-74
2024/01/04 12:29:26;;;;;;;;;;;;;;;6.98;100.00;95702.13;5066301;28;19936;-74
2024/01/04 12:31:52;;;;;;;;;;;;;;;6.93;100.00;95707.19;5047350;28;20247;-74
2024/01/04 12:34:18;;;;;;;;;;;;;;;6.87;100.00;95708.81;5066195;28;19937;-74
2024/01/04 12:36:44;;;;;;;;;;;;;;;6.84;100.00;95708.44;5066152;28;19938;-74
2024/01/04 12:39:11;;;;;;;;;;;;;;;6.81;100.00;95712.28;5066085;28;20157;-78
2024/01/04 12:41:39;;;;;;;;;;;;;;;6.77;100.00;95716.31;5065962;28;19954;-78
2024/01/04 12:44:05;;;;;;;;;;;;;;;6.77;100.00;95711.09;5048241;28;19955;-78